Aérodrome :
LOGIN :

S'inscrire | Disclaimer

   EN    FR    IT 

 










Légende :    VFR   VFR Marginal   IFR   IFR Intensif   IFR Très Intensif
Visi : 
Plafond : 
>= 8 km
>= 3000ft
5 à 8 km
1000 à 3000 ft
1500m à 5 km
500 à 1000 ft
800 à 1500m
200 à 500 ft
< 800m
< 200 ft
Symboles :   Orages  Brouillard  Fortes neiges  Fortes précipitations  Vent > 20 kt
SIGMETs :   Divers  Orages  Givrage  Turbulence  Onde Orograph.  Cendres Volcan.






- Altitude de l'aérodrome : 154 ft
- Code IATA : SZZ


EPSC - Szczecin Goleniow

DERNIER METAR :
  • 240500Z 26011KT 9999 -SHRA FEW009 BKN014CB 04/02 Q1012

METARs EXPIRÉS :
  • 240430Z 27012KT 9999 -SHRA FEW008 BKN015TCU 04/02 Q1012
  • 240400Z 27013KT 9999 FEW008 BKN015 OVC018 04/02 Q1012
  • 240330Z 27014KT 9999 SCT014TCU OVC017 04/02 Q1011
  • 240300Z 27014KT 9999 FEW007 BKN015 04/02 Q1011
  • 240230Z 27013KT 9999 SCT012 OVC014 04/02 Q1011

TAF TAF EPSC
Valide du 24 à 00h jusqu'au 25 à 00h UTC


232330Z 2400/2424 28014KT 9999 BKN014
PROB40
TEMPO 2400/2408 28020G37KT SHRA BKN007 BKN012CB
BECMG 2407/2409 BKN030
PROB40
TEMPO 2408/2414 27015G28KT
BECMG 2414/2416 17008KT
PROB40 2420/2424 4000 RA BKN010



MET'MAP, la Météo Aéronautique d'un coup d'oeil ! - Copyright ORBIFLY Décembre 2007 - Disclaimer

ORBIFLY MET'MAP TEAM :

Programmation & Développement : Alexandra Zaïnal
Sur une idée originale de : Baudouin d'Aumeries
Assistance à la programmation : Marc-Olivier Méhu
Soutien technique & logistique : Manuel Goepfert

Contact : metmap@orbifly.com




SOURCES & CREDITS :

   NOAA